Time;durP1;ratioP1;P1;durP2;ratioP2;P2;SDS_P1;SDS_P2;PMS_P1;PMS_P2;Temp;Humidity;BMP_temperature;BMP_pressure;BME280_temperature;BME280_humidity;BME280_pressure;Samples;Min_cycle;Max_cycle;Signal;HPM_P1;HPM_P2
2022/02/11 00:01:38;;;;;;;7.73;5.70;;;9.50;99.90;;;;;;5053523;28;20236;-58
2022/02/11 00:04:33;;;;;;;6.57;4.87;;;9.30;99.90;;;;;;5053407;28;20697;-58
2022/02/11 00:06:59;;;;;;;9.33;6.43;;;9.20;99.90;;;;;;5053464;28;20209;-58
2022/02/11 00:09:25;;;;;;;7.10;5.50;;;9.30;99.90;;;;;;5053344;28;20580;-58
2022/02/11 00:11:52;;;;;;;7.63;5.13;;;9.40;99.90;;;;;;5053561;28;20618;-58
2022/02/11 00:14:19;;;;;;;8.13;5.77;;;9.50;99.90;;;;;;5053277;28;20722;-58
2022/02/11 00:16:46;;;;;;;10.60;8.30;;;9.50;99.90;;;;;;5053326;28;20696;-58
2022/02/11 00:19:14;;;;;;;10.33;7.73;;;9.60;99.90;;;;;;5053245;28;20616;-58
2022/02/11 00:21:41;;;;;;;7.27;5.00;;;9.70;99.90;;;;;;5053070;28;20636;-58
2022/02/11 00:24:08;;;;;;;6.90;5.00;;;9.70;99.90;;;;;;5052935;28;20205;-58
2022/02/11 00:26:37;;;;;;;6.33;4.80;;;9.70;99.90;;;;;;5053512;28;20209;-58
2022/02/11 00:32:02;;;;;;;7.53;4.90;;;9.80;99.90;;;;;;5049297;28;20216;-58
2022/02/11 00:34:38;;;;;;;7.07;4.83;;;9.80;99.90;;;;;;5052224;28;20198;-58
2022/02/11 00:37:09;;;;;;;6.97;4.53;;;9.90;99.90;;;;;;5052902;28;20653;-58
2022/02/11 00:45:40;;;;;;;18.90;9.13;;;9.90;99.90;;;;;;5052799;28;20205;-60
2022/02/11 01:02:19;;;;;;;5.33;4.13;;;9.30;99.90;;;;;;5029617;28;20298;-59
2022/02/11 01:04:47;;;;;;;5.37;4.27;;;9.20;99.90;;;;;;5052433;28;20216;-59
2022/02/11 01:07:15;;;;;;;7.00;4.77;;;8.90;99.90;;;;;;5052440;28;20201;-59
2022/02/11 01:09:42;;;;;;;8.03;4.80;;;8.80;99.90;;;;;;5052335;28;20216;-59
2022/02/11 01:12:11;;;;;;;6.20;4.40;;;8.60;99.90;;;;;;5052552;28;20254;-59
2022/02/11 01:14:42;;;;;;;9.63;4.87;;;8.60;99.90;;;;;;5052320;28;20206;-59
2022/02/11 01:17:15;;;;;;;8.83;5.27;;;8.60;99.90;;;;;;5052361;28;20232;-59
2022/02/11 01:22:37;;;;;;;8.73;5.07;;;8.50;99.90;;;;;;5050420;28;20677;-58
2022/02/11 01:28:00;;;;;;;7.37;4.90;;;8.50;99.90;;;;;;5048349;28;20281;-59
2022/02/11 01:30:50;;;;;;;8.23;4.63;;;8.50;99.90;;;;;;5052145;28;20735;-59
2022/02/11 01:33:39;;;;;;;5.90;4.50;;;8.60;99.90;;;;;;5052040;28;20202;-60
2022/02/11 01:36:19;;;;;;;9.60;4.50;;;8.80;99.90;;;;;;5051923;28;20219;-58
2022/02/11 01:39:08;;;;;;;6.87;4.47;;;8.90;99.90;;;;;;5052094;28;20209;-58
2022/02/11 01:44:43;;;;;;;9.10;4.93;;;8.90;99.90;;;;;;5051388;28;20596;-59
2022/02/11 01:50:31;;;;;;;5.67;4.33;;;9.00;99.90;;;;;;5013275;28;20225;-59
2022/02/11 01:53:08;;;;;;;6.33;4.67;;;9.00;99.90;;;;;;5051585;28;20202;-59
2022/02/11 01:56:00;;;;;;;7.17;4.60;;;9.00;99.90;;;;;;5051728;28;20205;-59
2022/02/11 01:58:57;;;;;;;7.43;4.43;;;9.10;99.90;;;;;;5051872;28;20292;-59
2022/02/11 02:12:54;;;;;;;6.33;4.00;;;8.80;99.90;;;;;;5049770;28;20715;-58
2022/02/11 02:26:50;;;;;;;4.77;3.50;;;8.90;99.90;;;;;;5030505;28;20205;-58
2022/02/11 02:35:09;;;;;;;5.37;4.03;;;8.80;99.90;;;;;;5051154;28;20215;-59
2022/02/11 02:56:50;;;;;;;6.03;4.00;;;8.70;99.90;;;;;;5052755;28;20237;-59
2022/02/11 02:59:34;;;;;;;5.50;4.00;;;8.70;99.90;;;;;;5054823;28;20706;-59
2022/02/11 03:02:08;;;;;;;5.60;4.00;;;8.70;99.90;;;;;;5055119;28;20312;-58
2022/02/11 03:51:25;;;;;;;2.60;2.40;;;6.90;99.90;;;;;;5054481;28;20299;-59
2022/02/11 04:08:18;;;;;;;1.40;1.10;;;6.10;99.90;;;;;;5036239;28;20201;-59
2022/02/11 04:22:00;;;;;;;1.30;1.10;;;5.50;99.90;;;;;;5055153;28;20224;-59
2022/02/11 05:00:05;;;;;;;2.30;2.10;;;5.60;99.90;;;;;;5052746;28;20735;-60
2022/02/11 05:02:35;;;;;;;3.70;2.00;;;5.60;99.90;;;;;;5052878;28;20221;-60
2022/02/11 05:05:04;;;;;;;2.10;1.90;;;5.70;99.90;;;;;;5052608;28;20209;-59
2022/02/11 05:07:31;;;;;;;3.33;2.00;;;5.70;99.90;;;;;;5052800;28;20684;-59
2022/02/11 05:09:59;;;;;;;1.90;1.80;;;5.70;99.90;;;;;;5052785;28;20694;-59
2022/02/11 05:12:26;;;;;;;2.17;1.90;;;5.60;99.90;;;;;;5052690;28;20735;-59
2022/02/11 05:14:53;;;;;;;3.13;2.37;;;5.70;99.90;;;;;;5052846;28;20210;-59
2022/02/11 05:17:20;;;;;;;3.17;2.10;;;5.70;99.90;;;;;;5052592;28;20209;-59
2022/02/11 05:19:46;;;;;;;2.10;1.90;;;5.60;99.90;;;;;;5051831;28;20731;-59
2022/02/11 05:22:13;;;;;;;2.03;1.80;;;5.50;99.90;;;;;;5052811;28;20217;-59
2022/02/11 05:24:40;;;;;;;5.60;2.37;;;5.50;99.90;;;;;;5052438;28;20689;-59
2022/02/11 05:27:08;;;;;;;2.37;2.03;;;5.60;99.90;;;;;;5052725;28;20216;-60
2022/02/11 05:29:34;;;;;;;3.27;2.33;;;5.70;99.90;;;;;;5052754;28;20209;-60
2022/02/11 05:32:01;;;;;;;2.47;2.27;;;5.60;99.90;;;;;;5052788;28;20251;-59
2022/02/11 05:34:28;;;;;;;4.07;2.60;;;5.60;99.90;;;;;;5052330;28;20669;-59
2022/02/11 05:36:54;;;;;;;2.47;2.27;;;5.60;99.90;;;;;;5052896;28;20283;-59
2022/02/11 05:39:21;;;;;;;2.53;2.33;;;5.60;99.90;;;;;;5053230;28;20279;-59
2022/02/11 05:41:48;;;;;;;4.60;2.70;;;5.50;99.90;;;;;;5052683;28;20635;-59
2022/02/11 05:44:16;;;;;;;3.10;2.40;;;5.40;99.90;;;;;;5052261;28;20645;-59
2022/02/11 05:46:42;;;;;;;2.47;2.27;;;5.40;99.90;;;;;;5052464;28;20649;-60
2022/02/11 05:49:09;;;;;;;5.33;2.50;;;5.30;99.90;;;;;;5052830;28;20209;-60
2022/02/11 05:51:36;;;;;;;2.50;2.30;;;5.40;99.90;;;;;;5052939;28;20255;-59
2022/02/11 05:54:02;;;;;;;3.70;2.70;;;5.30;99.90;;;;;;5052103;28;20275;-59
2022/02/11 05:56:29;;;;;;;2.70;2.50;;;5.30;99.90;;;;;;5052395;28;20210;-59
2022/02/11 05:58:56;;;;;;;3.57;2.83;;;5.30;99.90;;;;;;5052724;28;20673;-59
2022/02/11 06:01:24;;;;;;;4.43;3.53;;;5.20;99.90;;;;;;5052388;28;20252;-60
2022/02/11 06:03:50;;;;;;;3.90;3.20;;;5.30;99.90;;;;;;5052185;28;20271;-60
2022/02/11 06:06:17;;;;;;;3.37;3.07;;;5.40;99.90;;;;;;5052175;28;20205;-60
2022/02/11 06:08:44;;;;;;;4.17;3.77;;;5.60;99.90;;;;;;5052058;28;20210;-60
2022/02/11 06:11:10;;;;;;;6.43;4.20;;;5.70;99.90;;;;;;5051850;28;20230;-60
2022/02/11 06:13:37;;;;;;;4.47;4.07;;;5.70;99.90;;;;;;5052210;28;20248;-60
2022/02/11 06:16:04;;;;;;;4.20;3.80;;;5.70;99.90;;;;;;5051552;28;20210;-60
2022/02/11 06:18:32;;;;;;;6.40;4.10;;;5.80;99.90;;;;;;5051636;28;20206;-60
2022/02/11 06:20:59;;;;;;;5.20;4.70;;;5.90;99.90;;;;;;5051628;28;20758;-60
2022/02/11 06:23:26;;;;;;;5.30;4.70;;;5.90;99.90;;;;;;5051209;28;20701;-60
2022/02/11 06:25:53;;;;;;;5.43;4.93;;;6.00;99.90;;;;;;5052040;28;20208;-60
2022/02/11 06:28:19;;;;;;;7.40;5.10;;;6.00;99.90;;;;;;5051769;28;20349;-60
2022/02/11 06:30:46;;;;;;;8.30;5.77;;;6.00;99.90;;;;;;5051467;28;20709;-60
2022/02/11 06:33:13;;;;;;;5.30;4.80;;;6.10;99.90;;;;;;5055156;28;20608;-60
2022/02/11 06:35:44;;;;;;;6.03;5.07;;;6.20;99.90;;;;;;5055360;28;20205;-60
2022/02/11 06:38:11;;;;;;;6.03;5.43;;;6.20;99.90;;;;;;5055397;28;20201;-60
2022/02/11 06:40:37;;;;;;;9.43;7.43;;;6.20;99.90;;;;;;5055357;28;20222;-60
2022/02/11 06:43:06;;;;;;;8.23;6.33;;;6.00;99.90;;;;;;5055263;28;20221;-60
2022/02/11 06:45:32;;;;;;;5.70;5.10;;;5.70;99.90;;;;;;5055404;28;20237;-60
2022/02/11 06:47:59;;;;;;;17.40;15.53;;;5.50;99.90;;;;;;5055267;28;20255;-60
2022/02/11 06:50:26;;;;;;;5.93;5.10;;;5.40;99.90;;;;;;5055322;28;20229;-60
2022/02/11 06:52:55;;;;;;;6.27;4.63;;;5.30;99.90;;;;;;5055270;28;20201;-60
2022/02/11 06:55:23;;;;;;;6.17;4.93;;;5.30;99.90;;;;;;5055177;28;20259;-60
2022/02/11 06:57:49;;;;;;;5.23;4.70;;;5.40;99.90;;;;;;5055614;28;20213;-60
2022/02/11 07:00:17;;;;;;;5.20;4.50;;;5.50;99.90;;;;;;5056133;28;20229;-60
2022/02/11 07:02:44;;;;;;;5.67;5.00;;;5.60;99.90;;;;;;5055817;28;20209;-60
2022/02/11 07:05:11;;;;;;;4.90;4.40;;;5.60;99.90;;;;;;5054872;28;20217;-60
2022/02/11 07:07:38;;;;;;;5.50;4.60;;;5.80;99.90;;;;;;5054849;28;20210;-60
2022/02/11 07:10:06;;;;;;;6.37;4.47;;;5.90;99.90;;;;;;5054626;28;20237;-59
2022/02/11 07:12:33;;;;;;;5.53;4.40;;;6.00;99.90;;;;;;5054837;28;20224;-60
2022/02/11 07:15:00;;;;;;;4.23;3.83;;;6.00;99.90;;;;;;5054534;28;20206;-60
2022/02/11 07:17:27;;;;;;;5.47;4.33;;;6.00;99.90;;;;;;5054499;28;20739;-60
2022/02/11 07:19:53;;;;;;;7.63;4.40;;;6.10;99.90;;;;;;5054641;28;20205;-60
2022/02/11 07:22:20;;;;;;;4.23;3.60;;;6.10;99.90;;;;;;5054629;28;20209;-60
2022/02/11 07:24:48;;;;;;;5.77;4.33;;;6.20;99.90;;;;;;5054267;28;20233;-61
2022/02/11 07:27:16;;;;;;;5.90;4.40;;;6.10;99.90;;;;;;5054664;28;20642;-60
2022/02/11 07:29:43;;;;;;;5.73;4.03;;;6.00;99.90;;;;;;5054540;28;20566;-60
2022/02/11 07:32:10;;;;;;;3.83;3.43;;;6.00;99.90;;;;;;5054445;28;20899;-60
2022/02/11 07:34:37;;;;;;;5.87;3.53;;;6.00;99.90;;;;;;5054134;28;20205;-60
2022/02/11 07:37:04;;;;;;;4.13;3.60;;;6.00;99.90;;;;;;5054194;28;20240;-59
2022/02/11 07:39:31;;;;;;;4.77;3.67;;;6.20;99.90;;;;;;5054243;28;20271;-59
2022/02/11 07:41:58;;;;;;;4.43;3.70;;;6.30;99.90;;;;;;5054183;28;20321;-61
2022/02/11 07:44:26;;;;;;;4.17;3.53;;;6.50;99.90;;;;;;5053952;28;20271;-60
2022/02/11 07:46:52;;;;;;;9.37;6.80;;;6.60;99.90;;;;;;5053955;28;20259;-59
2022/02/11 07:49:19;;;;;;;3.87;3.27;;;6.80;99.90;;;;;;5054176;28;20205;-59
2022/02/11 07:51:46;;;;;;;6.07;4.67;;;6.90;99.90;;;;;;5053674;28;20233;-60
2022/02/11 07:54:13;;;;;;;5.43;3.47;;;6.90;99.90;;;;;;5053789;28;20236;-60
2022/02/11 07:56:40;;;;;;;4.70;3.63;;;7.00;99.90;;;;;;5053976;28;20240;-60
2022/02/11 07:59:07;;;;;;;8.13;3.57;;;7.10;99.90;;;;;;5053874;28;20320;-60
2022/02/11 08:01:35;;;;;;;5.53;3.40;;;7.20;99.90;;;;;;5053525;28;20656;-60
2022/02/11 08:04:01;;;;;;;4.43;2.87;;;7.20;99.90;;;;;;5053468;28;20226;-61
2022/02/11 08:06:28;;;;;;;6.20;3.67;;;7.30;99.90;;;;;;5053834;28;20228;-59
2022/02/11 08:08:55;;;;;;;4.47;3.67;;;7.30;99.90;;;;;;5054060;28;20263;-60
2022/02/11 08:11:21;;;;;;;4.90;3.13;;;7.20;99.90;;;;;;5053979;28;20234;-61
2022/02/11 08:13:48;;;;;;;4.97;3.10;;;7.10;99.90;;;;;;5053305;28;20613;-62
2022/02/11 08:16:15;;;;;;;4.70;3.37;;;7.10;99.90;;;;;;5053533;28;20622;-60
2022/02/11 08:18:43;;;;;;;5.20;2.93;;;7.10;99.90;;;;;;5053505;28;20648;-61
2022/02/11 08:21:10;;;;;;;4.50;2.67;;;7.30;99.90;;;;;;5053229;28;20228;-62
2022/02/11 08:23:37;;;;;;;5.83;2.83;;;7.60;99.90;;;;;;5053212;28;20328;-62
2022/02/11 08:26:04;;;;;;;4.93;3.60;;;7.70;99.90;;;;;;5053205;28;20672;-62
2022/02/11 08:28:31;;;;;;;5.37;3.23;;;7.90;99.90;;;;;;5053071;28;20699;-62
2022/02/11 08:30:58;;;;;;;4.27;2.60;;;8.00;99.90;;;;;;5053237;28;20252;-62
2022/02/11 08:33:25;;;;;;;3.17;2.77;;;8.10;99.90;;;;;;5052958;28;20201;-62
2022/02/11 08:35:55;;;;;;;3.33;2.57;;;8.10;99.90;;;;;;5053231;28;20214;-61
2022/02/11 08:38:23;;;;;;;4.40;2.83;;;8.10;99.90;;;;;;5053481;28;20213;-62
2022/02/11 08:40:50;;;;;;;4.70;2.60;;;8.10;99.90;;;;;;5052949;28;20778;-61
2022/02/11 08:43:18;;;;;;;3.67;2.77;;;8.00;99.90;;;;;;5052721;28;20673;-62
2022/02/11 08:45:45;;;;;;;4.27;2.80;;;7.90;99.90;;;;;;5052975;28;20205;-62
2022/02/11 08:48:13;;;;;;;5.23;2.90;;;7.90;99.90;;;;;;5052784;28;20581;-61
2022/02/11 08:50:42;;;;;;;6.17;2.80;;;7.80;99.90;;;;;;5052804;28;20611;-60
2022/02/11 08:53:10;;;;;;;4.80;2.90;;;7.70;99.90;;;;;;5052777;28;20288;-62
2022/02/11 08:55:38;;;;;;;4.63;2.77;;;7.40;99.90;;;;;;5052153;28;20274;-63
2022/02/11 08:58:06;;;;;;;4.10;2.67;;;7.30;99.90;;;;;;5052809;28;20217;-61
2022/02/11 09:00:32;;;;;;;5.63;2.60;;;7.10;99.90;;;;;;5080119;22;20228;-56
2022/02/11 09:03:00;;;;;;;5.73;3.13;;;7.10;99.90;;;;;;5064388;28;20623;-56
2022/02/11 09:05:28;;;;;;;5.20;3.13;;;6.90;99.90;;;;;;5072522;28;20236;-55
2022/02/11 09:07:55;;;;;;;5.63;2.80;;;6.90;99.90;;;;;;5072848;28;20209;-56
2022/02/11 09:10:26;;;;;;;5.80;3.30;;;6.90;99.90;;;;;;5072410;28;20712;-56
2022/02/11 09:12:53;;;;;;;9.30;2.73;;;7.10;99.90;;;;;;5072798;28;20573;-57
2022/02/11 09:15:21;;;;;;;8.03;2.80;;;7.30;99.90;;;;;;5072354;28;20856;-56
2022/02/11 09:17:48;;;;;;;5.57;2.80;;;7.40;99.90;;;;;;5072740;28;20650;-57
2022/02/11 09:20:15;;;;;;;4.40;2.60;;;7.50;99.90;;;;;;5072705;28;20208;-57
2022/02/11 09:22:41;;;;;;;5.23;2.33;;;7.70;99.90;;;;;;5072560;28;20213;-56
2022/02/11 09:25:08;;;;;;;5.50;2.50;;;7.90;99.90;;;;;;5072358;28;20237;-56
2022/02/11 09:27:43;;;;;;;4.60;3.07;;;8.00;99.90;;;;;;5071972;28;20208;-56
2022/02/11 09:30:12;;;;;;;3.47;2.30;;;7.90;99.90;;;;;;5072384;28;20664;-56
2022/02/11 09:32:39;;;;;;;6.43;2.60;;;7.70;99.90;;;;;;5072429;28;20220;-56
2022/02/11 09:35:06;;;;;;;5.47;2.70;;;7.60;99.90;;;;;;5072203;28;20628;-56
2022/02/11 09:37:34;;;;;;;4.50;2.50;;;7.50;99.90;;;;;;5072507;28;20209;-57
2022/02/11 09:40:01;;;;;;;6.00;2.60;;;7.60;99.90;;;;;;5072435;28;20299;-57
2022/02/11 09:42:30;;;;;;;4.60;2.50;;;7.50;99.90;;;;;;5072190;28;20693;-56
2022/02/11 09:44:59;;;;;;;6.43;2.50;;;7.40;99.90;;;;;;5072073;28;20228;-56
2022/02/11 09:47:26;;;;;;;8.47;3.47;;;7.60;99.90;;;;;;5072133;28;20212;-56
2022/02/11 09:49:53;;;;;;;3.67;2.40;;;7.80;99.90;;;;;;5072088;28;20705;-56
2022/02/11 09:52:20;;;;;;;4.97;2.40;;;7.90;99.90;;;;;;5071847;28;20232;-57
2022/02/11 09:54:47;;;;;;;4.80;2.73;;;7.90;99.90;;;;;;5071617;28;20205;-56
2022/02/11 09:57:19;;;;;;;3.17;2.10;;;8.10;99.90;;;;;;5072249;28;20209;-56
2022/02/11 09:59:46;;;;;;;7.13;2.33;;;8.10;99.90;;;;;;5072339;28;20555;-57
2022/02/11 10:02:17;;;;;;;6.23;2.60;;;8.20;99.90;;;;;;5071883;28;20236;-56
2022/02/11 10:04:56;;;;;;;6.80;2.67;;;8.30;99.90;;;;;;5071674;28;20252;-59
2022/02/11 10:07:23;;;;;;;7.97;2.40;;;8.40;99.90;;;;;;5075871;28;20560;-57
2022/02/11 10:09:50;;;;;;;5.87;2.90;;;8.70;99.90;;;;;;5076112;28;20212;-56
2022/02/11 10:12:17;;;;;;;6.50;2.93;;;8.70;99.90;;;;;;5076483;28;20228;-57
2022/02/11 10:14:43;;;;;;;10.23;3.70;;;8.80;99.90;;;;;;5075858;28;20326;-56
2022/02/11 10:17:19;;;;;;;7.67;3.60;;;9.00;99.90;;;;;;5075963;28;20599;-56
2022/02/11 10:19:50;;;;;;;4.67;2.30;;;9.30;99.90;;;;;;5076145;28;20270;-57
2022/02/11 10:22:19;;;;;;;4.20;1.93;;;9.60;99.90;;;;;;5076270;28;20225;-56
2022/02/11 10:24:46;;;;;;;4.80;1.90;;;9.70;99.90;;;;;;5076343;28;20244;-56
2022/02/11 10:27:22;;;;;;;4.73;2.07;;;9.80;99.90;;;;;;5075855;28;20201;-56
2022/02/11 10:29:51;;;;;;;4.43;2.10;;;9.90;99.90;;;;;;5075851;28;20208;-57
2022/02/11 10:32:35;;;;;;;4.73;1.87;;;10.10;99.90;;;;;;5075825;28;20252;-56
2022/02/11 10:35:02;;;;;;;5.87;2.70;;;10.10;99.90;;;;;;5075924;28;20201;-56
2022/02/11 10:37:29;;;;;;;6.07;2.20;;;10.30;99.90;;;;;;5075675;28;20209;-58
2022/02/11 10:39:57;;;;;;;4.43;2.13;;;10.40;99.90;;;;;;5075311;28;20262;-57
2022/02/11 10:42:42;;;;;;;5.73;2.30;;;10.50;99.90;;;;;;5075379;28;20669;-57
2022/02/11 10:45:29;;;;;;;6.80;2.70;;;10.60;99.90;;;;;;5075413;28;20229;-57
2022/02/11 10:48:15;;;;;;;8.57;4.90;;;10.80;99.90;;;;;;5075351;28;20219;-57
2022/02/11 10:50:47;;;;;;;6.13;2.90;;;10.90;99.90;;;;;;5075541;28;20221;-64
2022/02/11 10:53:25;;;;;;;5.87;2.00;;;10.90;99.90;;;;;;5072056;28;20589;-60
2022/02/11 10:55:54;;;;;;;4.10;2.27;;;10.90;99.90;;;;;;5075267;28;20278;-63
2022/02/11 10:58:22;;;;;;;7.27;3.10;;;11.00;99.90;;;;;;5075919;28;20262;-62
2022/02/11 11:00:49;;;;;;;6.73;3.10;;;11.10;99.90;;;;;;5076088;28;20236;-66
2022/02/11 11:03:17;;;;;;;6.37;2.10;;;10.90;99.90;;;;;;5076073;28;20213;-63
2022/02/11 11:05:45;;;;;;;9.00;2.13;;;10.60;99.90;;;;;;5074830;28;20228;-59
2022/02/11 11:08:14;;;;;;;8.40;2.30;;;10.40;99.90;;;;;;5075840;28;20205;-59
2022/02/11 11:10:42;;;;;;;5.50;2.13;;;10.30;99.90;;;;;;5075839;28;20228;-59
2022/02/11 11:13:12;;;;;;;4.47;2.70;;;10.40;99.90;;;;;;5075229;28;20201;-59
2022/02/11 11:15:39;;;;;;;6.73;2.60;;;10.40;99.90;;;;;;5075136;28;20655;-59
2022/02/11 11:18:07;;;;;;;7.83;2.57;;;10.40;99.90;;;;;;5074549;28;20209;-61
2022/02/11 11:20:36;;;;;;;6.17;2.40;;;10.40;99.90;;;;;;5075932;28;20225;-60
2022/02/11 11:23:09;;;;;;;5.93;2.23;;;10.10;99.90;;;;;;5075874;28;20216;-59
2022/02/11 11:25:54;;;;;;;6.50;2.40;;;10.20;99.90;;;;;;5075513;28;20225;-59
2022/02/11 11:28:44;;;;;;;4.93;2.07;;;10.20;99.90;;;;;;5075089;28;20243;-58
2022/02/11 11:31:14;;;;;;;7.47;4.50;;;10.20;99.90;;;;;;5075148;28;20225;-59
2022/02/11 11:33:42;;;;;;;11.67;5.77;;;10.10;99.90;;;;;;5075441;28;20201;-59
2022/02/11 11:36:12;;;;;;;6.47;2.20;;;10.20;99.90;;;;;;5075229;28;20207;-60
2022/02/11 11:38:43;;;;;;;7.30;2.20;;;10.20;99.90;;;;;;5074476;28;20215;-60
2022/02/11 11:41:15;;;;;;;3.57;1.77;;;10.10;99.90;;;;;;5074338;28;20804;-60
2022/02/11 11:43:44;;;;;;;4.03;1.77;;;10.00;99.90;;;;;;5074357;28;20212;-60
2022/02/11 11:46:35;;;;;;;5.97;1.90;;;9.80;99.90;;;;;;5074403;28;20707;-60
2022/02/11 11:49:04;;;;;;;5.03;2.13;;;9.90;99.90;;;;;;5074429;28;20223;-59
2022/02/11 11:52:07;;;;;;;4.43;2.20;;;10.10;99.90;;;;;;5074517;28;20256;-61
2022/02/11 11:54:34;;;;;;;5.07;2.03;;;10.20;99.90;;;;;;5071449;28;20232;-60
2022/02/11 11:57:02;;;;;;;7.07;2.40;;;10.20;99.90;;;;;;5074339;28;20583;-62
2022/02/11 11:59:36;;;;;;;5.20;2.40;;;10.10;99.90;;;;;;5075027;28;20575;-60
2022/02/11 12:02:05;;;;;;;6.90;3.07;;;10.00;99.90;;;;;;5073914;28;20247;-60
2022/02/11 12:04:33;;;;;;;5.33;2.50;;;10.00;99.90;;;;;;5056103;28;20217;-61
2022/02/11 12:07:03;;;;;;;6.33;2.30;;;10.10;99.90;;;;;;5053786;28;20627;-63
2022/02/11 12:09:31;;;;;;;4.03;2.20;;;10.20;99.90;;;;;;5054169;28;20210;-60
2022/02/11 12:12:00;;;;;;;3.80;1.97;;;10.10;99.90;;;;;;5053822;28;20234;-60
2022/02/11 12:14:28;;;;;;;5.93;2.00;;;9.90;99.90;;;;;;5052993;28;20275;-62
2022/02/11 12:16:56;;;;;;;7.33;3.00;;;9.70;99.90;;;;;;5053796;28;20205;-59
2022/02/11 12:19:23;;;;;;;5.50;2.20;;;9.60;99.90;;;;;;5053629;28;20635;-59
2022/02/11 12:21:50;;;;;;;7.03;4.13;;;9.70;99.90;;;;;;5053257;28;20732;-59
2022/02/11 12:27:23;;;;;;;5.90;2.03;;;9.80;99.90;;;;;;5052905;28;20189;-62
2022/02/11 12:29:52;;;;;;;7.47;2.73;;;9.90;99.90;;;;;;5053196;28;20209;-60
2022/02/11 12:32:20;;;;;;;4.80;1.80;;;10.10;99.90;;;;;;5053272;28;20229;-59
2022/02/11 12:34:54;;;;;;;5.57;2.27;;;10.30;99.90;;;;;;5053392;28;20205;-62
2022/02/11 12:37:21;;;;;;;9.47;3.20;;;10.50;99.90;;;;;;5053169;28;20181;-62
2022/02/11 12:40:01;;;;;;;5.60;2.17;;;10.50;99.90;;;;;;5053420;28;20210;-60
2022/02/11 12:42:28;;;;;;;4.20;1.77;;;10.40;99.90;;;;;;5054179;28;20227;-60
2022/02/11 12:44:55;;;;;;;6.57;1.80;;;10.40;99.90;;;;;;5054729;28;20711;-62
2022/02/11 12:47:21;;;;;;;3.77;2.17;;;10.40;99.90;;;;;;5054229;28;20206;-60
2022/02/11 12:49:51;;;;;;;5.53;1.70;;;10.40;99.90;;;;;;5054772;28;20205;-60
2022/02/11 12:52:20;;;;;;;4.57;1.90;;;10.40;99.90;;;;;;5054668;28;20287;-60
2022/02/11 12:54:59;;;;;;;5.40;2.20;;;10.20;99.90;;;;;;5054839;28;20212;-61
2022/02/11 12:57:26;;;;;;;4.30;2.20;;;10.30;99.90;;;;;;5055013;28;20232;-61
2022/02/11 12:59:53;;;;;;;5.53;1.80;;;10.40;99.90;;;;;;5056356;28;20559;-62
2022/02/11 13:02:27;;;;;;;6.67;1.97;;;10.40;99.90;;;;;;5055766;28;20628;-60
2022/02/11 13:05:05;;;;;;;4.90;2.10;;;10.40;99.90;;;;;;5056052;28;20224;-59
2022/02/11 13:07:32;;;;;;;4.50;1.83;;;10.30;99.90;;;;;;5055150;28;20264;-61
2022/02/11 13:10:00;;;;;;;7.33;2.40;;;10.30;99.90;;;;;;5055387;28;20576;-60
2022/02/11 13:12:38;;;;;;;2.83;1.73;;;10.30;99.90;;;;;;5067543;28;20661;-60
2022/02/11 13:15:07;;;;;;;4.73;2.10;;;10.30;99.90;;;;;;5077290;28;20695;-59
2022/02/11 13:17:34;;;;;;;6.27;2.07;;;10.30;99.90;;;;;;5075703;28;20201;-60
2022/02/11 13:20:06;;;;;;;4.43;2.10;;;10.30;99.90;;;;;;5075670;28;20579;-59
2022/02/11 13:22:33;;;;;;;5.23;2.17;;;10.40;99.90;;;;;;5074635;28;20215;-60
2022/02/11 13:25:01;;;;;;;6.70;2.40;;;10.30;99.90;;;;;;5073637;28;20221;-59
2022/02/11 13:27:46;;;;;;;4.00;2.00;;;10.30;99.90;;;;;;5072544;28;20208;-60
2022/02/11 13:30:15;;;;;;;5.70;1.97;;;10.30;99.90;;;;;;5072846;28;20251;-60
2022/02/11 13:32:42;;;;;;;1.87;1.53;;;10.40;99.90;;;;;;5072430;28;20247;-60
2022/02/11 13:35:10;;;;;;;4.40;1.63;;;10.50;99.90;;;;;;5072384;28;20201;-58
2022/02/11 13:37:39;;;;;;;6.53;2.03;;;10.50;99.10;;;;;;5072845;28;20208;-58
2022/02/11 13:40:21;;;;;;;4.77;1.70;;;10.40;99.20;;;;;;5071681;28;20626;-59
2022/02/11 13:43:05;;;;;;;4.97;1.77;;;10.10;99.00;;;;;;5072981;28;20189;-59
2022/02/11 13:45:50;;;;;;;6.90;1.93;;;10.00;99.40;;;;;;5072254;28;20750;-60
2022/02/11 13:48:16;;;;;;;5.23;1.90;;;10.00;99.70;;;;;;5072214;28;20232;-59
2022/02/11 13:51:05;;;;;;;4.67;1.97;;;10.10;99.90;;;;;;5072296;28;20236;-59
2022/02/11 13:53:40;;;;;;;4.13;1.80;;;10.60;99.90;;;;;;5072768;28;20334;-60
2022/02/11 13:56:10;;;;;;;2.73;1.80;;;11.00;99.40;;;;;;5072138;28;20200;-59
2022/02/11 13:58:38;;;;;;;3.70;1.53;;;11.10;98.70;;;;;;5072537;28;20216;-59
2022/02/11 14:01:25;;;;;;;4.50;1.90;;;11.10;98.90;;;;;;5072696;28;20319;-58
2022/02/11 14:03:52;;;;;;;6.83;2.50;;;11.10;98.70;;;;;;5071983;28;20240;-58
2022/02/11 14:06:19;;;;;;;3.00;1.90;;;11.10;98.30;;;;;;5072066;28;20225;-59
2022/02/11 14:08:47;;;;;;;4.77;1.87;;;11.00;98.00;;;;;;5072134;28;20615;-58
2022/02/11 14:11:19;;;;;;;8.93;5.10;;;10.80;98.40;;;;;;5071795;28;20320;-59
2022/02/11 14:13:46;;;;;;;8.93;3.40;;;10.70;98.80;;;;;;5071965;28;20597;-59
2022/02/11 14:16:14;;;;;;;5.63;1.77;;;10.50;99.10;;;;;;5072115;28;20266;-58
2022/02/11 14:18:42;;;;;;;4.23;1.80;;;10.30;99.10;;;;;;5072142;28;20213;-58
2022/02/11 14:21:11;;;;;;;3.87;1.97;;;10.20;99.10;;;;;;5071752;28;20278;-60
2022/02/11 14:23:38;;;;;;;5.03;2.03;;;10.30;99.70;;;;;;5071484;28;20216;-60
2022/02/11 14:26:05;;;;;;;3.13;1.60;;;10.30;99.60;;;;;;5071499;28;20271;-60
2022/02/11 14:28:34;;;;;;;5.07;2.10;;;10.20;99.40;;;;;;5071688;28;20607;-59
2022/02/11 14:31:03;;;;;;;4.90;1.67;;;10.00;99.40;;;;;;5071982;28;20605;-59
2022/02/11 14:33:30;;;;;;;4.80;1.93;;;9.90;99.90;;;;;;5071918;28;20205;-59
2022/02/11 14:35:57;;;;;;;3.53;2.20;;;9.90;99.60;;;;;;5071731;28;20201;-58
2022/02/11 14:38:24;;;;;;;3.67;1.80;;;9.70;99.30;;;;;;5072043;28;20216;-57
2022/02/11 14:43:37;;;;;;;3.50;1.93;;;9.50;99.90;;;;;;5071748;28;20203;-59
2022/02/11 14:46:03;;;;;;;2.33;1.47;;;9.50;99.90;;;;;;5071384;28;20253;-59
2022/02/11 14:48:30;;;;;;;2.80;1.47;;;9.50;99.70;;;;;;5071786;28;20205;-58
2022/02/11 14:50:57;;;;;;;3.60;1.97;;;9.50;99.50;;;;;;5071833;28;20228;-57
2022/02/11 14:53:23;;;;;;;6.77;2.20;;;9.40;99.80;;;;;;5067705;28;20271;-61
2022/02/11 14:55:50;;;;;;;5.70;1.90;;;9.50;99.90;;;;;;5055706;28;20229;-57
2022/02/11 14:58:17;;;;;;;6.27;1.80;;;9.40;99.90;;;;;;5055318;28;20201;-58
2022/02/11 15:00:45;;;;;;;7.53;2.23;;;9.40;99.90;;;;;;5079597;22;20225;-58
2022/02/11 15:03:12;;;;;;;3.80;1.77;;;9.40;99.80;;;;;;5057170;28;20296;-58
2022/02/11 15:05:38;;;;;;;4.70;1.77;;;9.50;99.70;;;;;;5034691;28;20240;-58
2022/02/11 15:08:05;;;;;;;4.20;1.80;;;9.50;99.70;;;;;;5035130;28;20217;-63
2022/02/11 15:10:32;;;;;;;5.17;2.07;;;9.50;99.90;;;;;;5034967;28;20635;-57
2022/02/11 15:12:59;;;;;;;3.90;2.10;;;9.50;99.90;;;;;;5034657;28;20591;-56
2022/02/11 15:15:29;;;;;;;4.37;2.00;;;9.40;99.90;;;;;;5034268;28;20214;-57
2022/02/11 15:17:57;;;;;;;6.67;3.50;;;9.30;99.90;;;;;;5055447;28;20206;-56
2022/02/11 15:20:24;;;;;;;3.07;2.07;;;9.20;99.90;;;;;;5072272;28;20610;-56
2022/02/11 15:22:50;;;;;;;6.47;1.80;;;9.20;99.90;;;;;;5074383;28;20278;-57
2022/02/11 15:25:17;;;;;;;6.67;4.37;;;9.10;99.90;;;;;;5074087;28;20205;-56
2022/02/11 15:27:45;;;;;;;5.87;2.70;;;9.00;99.90;;;;;;5074231;28;20205;-58
2022/02/11 15:30:14;;;;;;;6.50;2.10;;;9.00;99.90;;;;;;5074018;28;20209;-60
2022/02/11 15:32:41;;;;;;;3.17;1.67;;;8.90;99.90;;;;;;5074759;28;20321;-63
2022/02/11 15:35:10;;;;;;;6.37;2.10;;;8.90;99.90;;;;;;5073830;28;20676;-58
2022/02/11 15:37:38;;;;;;;5.27;1.70;;;8.80;99.90;;;;;;5074669;28;20209;-65
2022/02/11 15:40:06;;;;;;;3.20;1.90;;;8.80;99.90;;;;;;5074278;28;20631;-54
2022/02/11 15:42:33;;;;;;;4.00;1.77;;;8.90;99.90;;;;;;5073666;28;20708;-54
2022/02/11 15:45:00;;;;;;;2.60;1.43;;;8.80;99.90;;;;;;5073717;28;20661;-53
2022/02/11 15:47:28;;;;;;;5.03;2.50;;;8.60;99.90;;;;;;5074005;28;20232;-53
2022/02/11 15:49:55;;;;;;;4.73;2.10;;;8.00;99.90;;;;;;5074247;28;20205;-53
2022/02/11 15:52:24;;;;;;;4.60;2.00;;;7.90;99.90;;;;;;5074037;28;20233;-54
2022/02/11 15:54:50;;;;;;;5.13;2.37;;;7.50;99.90;;;;;;5073739;28;20205;-54
2022/02/11 15:57:18;;;;;;;5.73;2.20;;;7.40;99.90;;;;;;5073662;28;20208;-54
2022/02/11 15:59:45;;;;;;;3.67;2.43;;;7.30;99.90;;;;;;5073684;28;20292;-53
2022/02/11 16:02:12;;;;;;;8.73;2.60;;;7.10;99.90;;;;;;5073619;28;20228;-54
2022/02/11 16:04:39;;;;;;;7.43;3.50;;;7.10;99.90;;;;;;5073163;28;20287;-53
2022/02/11 16:07:06;;;;;;;4.93;2.30;;;7.10;99.90;;;;;;5073526;28;20715;-54
2022/02/11 16:09:34;;;;;;;6.30;2.43;;;7.00;99.90;;;;;;5073645;28;20205;-53
2022/02/11 16:12:05;;;;;;;4.80;2.13;;;6.70;99.90;;;;;;5073321;28;20229;-54
2022/02/11 16:14:31;;;;;;;3.30;2.27;;;6.40;99.90;;;;;;5073164;28;20564;-54
2022/02/11 16:17:00;;;;;;;3.90;2.00;;;6.20;99.90;;;;;;5073417;28;20722;-54
2022/02/11 16:19:27;;;;;;;5.03;1.93;;;6.00;99.90;;;;;;5073422;28;20204;-54
2022/02/11 16:21:54;;;;;;;8.23;2.33;;;5.90;99.90;;;;;;5073220;28;20240;-53